sensor_id;sensor_type;location;lat;lon;timestamp;P1;durP1;ratioP1;P2;durP2;ratioP2
69334;SDS011;56477;52.742;15.242;2023-01-09T00:01:50;29.02;;;12.13;;
69334;SDS011;56477;52.742;15.242;2023-01-09T00:04:17;24.50;;;11.43;;
69334;SDS011;56477;52.742;15.242;2023-01-09T00:06:44;32.10;;;14.73;;
69334;SDS011;56477;52.742;15.242;2023-01-09T00:09:18;26.70;;;12.23;;
69334;SDS011;56477;52.742;15.242;2023-01-09T00:11:46;27.27;;;11.02;;
69334;SDS011;56477;52.742;15.242;2023-01-09T00:14:13;31.58;;;13.52;;
69334;SDS011;56477;52.742;15.242;2023-01-09T00:16:42;35.13;;;13.63;;
69334;SDS011;56477;52.742;15.242;2023-01-09T00:19:10;30.50;;;12.90;;
69334;SDS011;56477;52.742;15.242;2023-01-09T00:21:36;25.60;;;10.57;;
69334;SDS011;56477;52.742;15.242;2023-01-09T00:24:02;26.92;;;11.23;;
69334;SDS011;56477;52.742;15.242;2023-01-09T00:26:29;29.98;;;12.68;;
69334;SDS011;56477;52.742;15.242;2023-01-09T00:28:55;30.47;;;12.73;;
69334;SDS011;56477;52.742;15.242;2023-01-09T00:31:21;32.35;;;13.82;;
69334;SDS011;56477;52.742;15.242;2023-01-09T00:33:49;29.20;;;13.23;;
69334;SDS011;56477;52.742;15.242;2023-01-09T00:36:23;28.38;;;11.65;;
69334;SDS011;56477;52.742;15.242;2023-01-09T00:38:49;32.47;;;13.60;;
69334;SDS011;56477;52.742;15.242;2023-01-09T00:41:18;30.67;;;13.43;;
69334;SDS011;56477;52.742;15.242;2023-01-09T00:43:49;30.65;;;13.82;;
69334;SDS011;56477;52.742;15.242;2023-01-09T00:46:18;30.20;;;13.93;;
69334;SDS011;56477;52.742;15.242;2023-01-09T00:48:46;27.95;;;11.68;;
69334;SDS011;56477;52.742;15.242;2023-01-09T00:51:14;33.60;;;13.32;;
69334;SDS011;56477;52.742;15.242;2023-01-09T00:53:44;28.00;;;11.63;;
69334;SDS011;56477;52.742;15.242;2023-01-09T00:56:12;31.05;;;12.52;;
69334;SDS011;56477;52.742;15.242;2023-01-09T00:58:41;29.10;;;13.13;;
69334;SDS011;56477;52.742;15.242;2023-01-09T01:01:07;27.85;;;11.70;;
69334;SDS011;56477;52.742;15.242;2023-01-09T01:03:33;28.95;;;11.77;;
69334;SDS011;56477;52.742;15.242;2023-01-09T01:05:59;31.37;;;12.03;;
69334;SDS011;56477;52.742;15.242;2023-01-09T01:08:44;29.30;;;12.20;;
69334;SDS011;56477;52.742;15.242;2023-01-09T01:11:10;21.83;;;9.10;;
69334;SDS011;56477;52.742;15.242;2023-01-09T01:13:38;27.60;;;11.30;;
69334;SDS011;56477;52.742;15.242;2023-01-09T01:16:06;23.27;;;10.75;;
69334;SDS011;56477;52.742;15.242;2023-01-09T01:18:34;27.60;;;11.97;;
69334;SDS011;56477;52.742;15.242;2023-01-09T01:21:04;27.27;;;11.70;;
69334;SDS011;56477;52.742;15.242;2023-01-09T01:23:34;26.10;;;10.57;;
69334;SDS011;56477;52.742;15.242;2023-01-09T01:26:05;30.27;;;12.38;;
69334;SDS011;56477;52.742;15.242;2023-01-09T01:28:32;19.08;;;7.20;;
69334;SDS011;56477;52.742;15.242;2023-01-09T01:30:59;21.57;;;10.00;;
69334;SDS011;56477;52.742;15.242;2023-01-09T01:33:25;27.20;;;10.95;;
69334;SDS011;56477;52.742;15.242;2023-01-09T01:36:02;26.73;;;11.95;;
69334;SDS011;56477;52.742;15.242;2023-01-09T01:38:33;27.08;;;11.25;;
69334;SDS011;56477;52.742;15.242;2023-01-09T01:41:01;27.70;;;11.02;;
69334;SDS011;56477;52.742;15.242;2023-01-09T01:43:27;25.60;;;11.90;;
69334;SDS011;56477;52.742;15.242;2023-01-09T01:46:14;25.55;;;10.98;;
69334;SDS011;56477;52.742;15.242;2023-01-09T01:48:41;30.45;;;12.43;;
69334;SDS011;56477;52.742;15.242;2023-01-09T01:51:08;29.00;;;12.50;;
69334;SDS011;56477;52.742;15.242;2023-01-09T01:53:37;26.17;;;11.35;;
69334;SDS011;56477;52.742;15.242;2023-01-09T01:58:49;30.02;;;12.13;;
69334;SDS011;56477;52.742;15.242;2023-01-09T02:01:23;27.67;;;11.43;;
69334;SDS011;56477;52.742;15.242;2023-01-09T02:03:50;26.73;;;11.77;;
69334;SDS011;56477;52.742;15.242;2023-01-09T02:06:19;26.75;;;11.02;;
69334;SDS011;56477;52.742;15.242;2023-01-09T02:08:45;32.57;;;11.70;;
69334;SDS011;56477;52.742;15.242;2023-01-09T02:11:12;29.35;;;11.85;;
69334;SDS011;56477;52.742;15.242;2023-01-09T02:13:38;23.63;;;9.65;;
69334;SDS011;56477;52.742;15.242;2023-01-09T02:18:53;28.63;;;12.30;;
69334;SDS011;56477;52.742;15.242;2023-01-09T02:33:00;31.73;;;13.25;;
69334;SDS011;56477;52.742;15.242;2023-01-09T02:41:31;32.08;;;13.18;;
69334;SDS011;56477;52.742;15.242;2023-01-09T02:44:20;20.88;;;9.38;;
69334;SDS011;56477;52.742;15.242;2023-01-09T02:49:31;31.20;;;11.87;;
69334;SDS011;56477;52.742;15.242;2023-01-09T02:54:58;23.85;;;9.82;;
69334;SDS011;56477;52.742;15.242;2023-01-09T03:08:56;35.92;;;14.88;;
69334;SDS011;56477;52.742;15.242;2023-01-09T03:11:29;33.30;;;13.77;;
69334;SDS011;56477;52.742;15.242;2023-01-09T03:14:01;35.58;;;12.85;;
69334;SDS011;56477;52.742;15.242;2023-01-09T03:16:32;23.53;;;9.40;;
69334;SDS011;56477;52.742;15.242;2023-01-09T03:19:04;26.77;;;10.20;;
69334;SDS011;56477;52.742;15.242;2023-01-09T03:21:32;25.60;;;9.65;;
69334;SDS011;56477;52.742;15.242;2023-01-09T03:24:00;36.33;;;12.63;;
69334;SDS011;56477;52.742;15.242;2023-01-09T03:26:27;27.00;;;11.60;;
69334;SDS011;56477;52.742;15.242;2023-01-09T03:28:56;35.47;;;13.90;;
69334;SDS011;56477;52.742;15.242;2023-01-09T03:31:23;35.28;;;13.63;;
69334;SDS011;56477;52.742;15.242;2023-01-09T03:33:49;35.63;;;14.52;;
69334;SDS011;56477;52.742;15.242;2023-01-09T03:36:16;37.45;;;14.57;;
69334;SDS011;56477;52.742;15.242;2023-01-09T03:38:43;37.53;;;14.00;;
69334;SDS011;56477;52.742;15.242;2023-01-09T03:41:09;33.93;;;14.27;;
69334;SDS011;56477;52.742;15.242;2023-01-09T03:43:35;38.63;;;15.57;;
69334;SDS011;56477;52.742;15.242;2023-01-09T03:46:01;36.15;;;13.30;;
69334;SDS011;56477;52.742;15.242;2023-01-09T03:48:28;24.58;;;10.63;;
69334;SDS011;56477;52.742;15.242;2023-01-09T03:50:54;38.53;;;15.77;;
69334;SDS011;56477;52.742;15.242;2023-01-09T03:53:22;41.92;;;15.45;;
69334;SDS011;56477;52.742;15.242;2023-01-09T03:55:50;37.92;;;13.30;;
69334;SDS011;56477;52.742;15.242;2023-01-09T03:58:19;33.83;;;13.05;;
69334;SDS011;56477;52.742;15.242;2023-01-09T04:00:46;35.70;;;14.50;;
69334;SDS011;56477;52.742;15.242;2023-01-09T04:03:17;33.03;;;12.47;;
69334;SDS011;56477;52.742;15.242;2023-01-09T04:05:45;30.83;;;12.13;;
69334;SDS011;56477;52.742;15.242;2023-01-09T04:08:12;41.00;;;15.80;;
69334;SDS011;56477;52.742;15.242;2023-01-09T04:10:39;35.92;;;13.80;;
69334;SDS011;56477;52.742;15.242;2023-01-09T04:13:05;40.30;;;16.30;;
69334;SDS011;56477;52.742;15.242;2023-01-09T04:15:31;37.58;;;15.10;;
69334;SDS011;56477;52.742;15.242;2023-01-09T04:17:57;31.52;;;12.00;;
69334;SDS011;56477;52.742;15.242;2023-01-09T04:20:23;33.05;;;13.73;;
69334;SDS011;56477;52.742;15.242;2023-01-09T04:22:49;37.43;;;15.00;;
69334;SDS011;56477;52.742;15.242;2023-01-09T04:25:15;42.90;;;15.57;;
69334;SDS011;56477;52.742;15.242;2023-01-09T04:27:41;37.50;;;14.82;;
69334;SDS011;56477;52.742;15.242;2023-01-09T04:30:07;40.10;;;15.13;;
69334;SDS011;56477;52.742;15.242;2023-01-09T04:32:33;28.70;;;11.77;;
69334;SDS011;56477;52.742;15.242;2023-01-09T04:34:59;39.85;;;16.38;;
69334;SDS011;56477;52.742;15.242;2023-01-09T04:37:25;38.28;;;14.50;;
69334;SDS011;56477;52.742;15.242;2023-01-09T04:39:51;42.53;;;15.95;;
69334;SDS011;56477;52.742;15.242;2023-01-09T04:42:20;40.30;;;15.98;;
69334;SDS011;56477;52.742;15.242;2023-01-09T04:44:46;41.97;;;16.40;;
69334;SDS011;56477;52.742;15.242;2023-01-09T04:47:12;33.50;;;13.82;;
69334;SDS011;56477;52.742;15.242;2023-01-09T04:49:38;41.63;;;15.30;;
69334;SDS011;56477;52.742;15.242;2023-01-09T04:52:04;31.52;;;13.07;;
69334;SDS011;56477;52.742;15.242;2023-01-09T04:54:31;36.97;;;14.90;;
69334;SDS011;56477;52.742;15.242;2023-01-09T04:56:56;34.80;;;13.80;;
69334;SDS011;56477;52.742;15.242;2023-01-09T04:59:23;35.75;;;13.75;;
69334;SDS011;56477;52.742;15.242;2023-01-09T05:01:48;40.80;;;14.63;;
69334;SDS011;56477;52.742;15.242;2023-01-09T05:04:16;32.50;;;11.70;;
69334;SDS011;56477;52.742;15.242;2023-01-09T05:06:42;39.30;;;17.33;;
69334;SDS011;56477;52.742;15.242;2023-01-09T05:09:08;38.47;;;14.88;;
69334;SDS011;56477;52.742;15.242;2023-01-09T05:11:34;41.53;;;15.07;;
69334;SDS011;56477;52.742;15.242;2023-01-09T05:14:00;35.42;;;13.57;;
69334;SDS011;56477;52.742;15.242;2023-01-09T05:16:26;41.30;;;14.82;;
69334;SDS011;56477;52.742;15.242;2023-01-09T05:18:52;43.70;;;16.10;;
69334;SDS011;56477;52.742;15.242;2023-01-09T05:21:21;41.33;;;14.67;;
69334;SDS011;56477;52.742;15.242;2023-01-09T05:23:48;37.03;;;14.20;;
69334;SDS011;56477;52.742;15.242;2023-01-09T05:26:14;40.10;;;15.40;;
69334;SDS011;56477;52.742;15.242;2023-01-09T05:28:40;41.40;;;16.13;;
69334;SDS011;56477;52.742;15.242;2023-01-09T05:31:06;43.63;;;16.23;;
69334;SDS011;56477;52.742;15.242;2023-01-09T05:33:32;44.28;;;16.48;;
69334;SDS011;56477;52.742;15.242;2023-01-09T05:35:58;43.85;;;17.23;;
69334;SDS011;56477;52.742;15.242;2023-01-09T05:38:24;40.78;;;15.95;;
69334;SDS011;56477;52.742;15.242;2023-01-09T05:40:50;42.30;;;16.63;;
69334;SDS011;56477;52.742;15.242;2023-01-09T05:43:16;44.90;;;17.27;;
69334;SDS011;56477;52.742;15.242;2023-01-09T05:45:42;42.10;;;15.55;;
69334;SDS011;56477;52.742;15.242;2023-01-09T05:48:08;40.97;;;16.07;;
69334;SDS011;56477;52.742;15.242;2023-01-09T05:50:34;42.75;;;17.63;;
69334;SDS011;56477;52.742;15.242;2023-01-09T05:53:00;41.38;;;16.73;;
69334;SDS011;56477;52.742;15.242;2023-01-09T05:55:26;43.73;;;17.30;;
69334;SDS011;56477;52.742;15.242;2023-01-09T05:57:52;42.83;;;16.58;;
69334;SDS011;56477;52.742;15.242;2023-01-09T06:00:18;41.92;;;16.27;;
69334;SDS011;56477;52.742;15.242;2023-01-09T06:02:44;41.17;;;16.08;;
69334;SDS011;56477;52.742;15.242;2023-01-09T06:05:10;39.43;;;15.93;;
69334;SDS011;56477;52.742;15.242;2023-01-09T06:07:36;40.28;;;15.68;;
69334;SDS011;56477;52.742;15.242;2023-01-09T06:10:06;37.28;;;15.90;;
69334;SDS011;56477;52.742;15.242;2023-01-09T06:12:35;29.50;;;11.88;;
69334;SDS011;56477;52.742;15.242;2023-01-09T06:15:01;42.73;;;17.40;;
69334;SDS011;56477;52.742;15.242;2023-01-09T06:17:27;40.25;;;17.48;;
69334;SDS011;56477;52.742;15.242;2023-01-09T06:19:53;42.92;;;17.85;;
69334;SDS011;56477;52.742;15.242;2023-01-09T06:22:19;38.50;;;15.13;;
69334;SDS011;56477;52.742;15.242;2023-01-09T06:24:45;41.53;;;15.20;;
69334;SDS011;56477;52.742;15.242;2023-01-09T06:27:11;38.25;;;17.00;;
69334;SDS011;56477;52.742;15.242;2023-01-09T06:29:37;45.03;;;17.35;;
69334;SDS011;56477;52.742;15.242;2023-01-09T06:32:04;41.10;;;15.77;;
69334;SDS011;56477;52.742;15.242;2023-01-09T06:34:30;40.58;;;17.23;;
69334;SDS011;56477;52.742;15.242;2023-01-09T06:36:56;40.40;;;16.03;;
69334;SDS011;56477;52.742;15.242;2023-01-09T06:39:22;39.85;;;15.85;;
69334;SDS011;56477;52.742;15.242;2023-01-09T06:41:48;40.45;;;16.20;;
69334;SDS011;56477;52.742;15.242;2023-01-09T06:44:14;31.20;;;12.10;;
69334;SDS011;56477;52.742;15.242;2023-01-09T06:46:40;33.72;;;13.65;;
69334;SDS011;56477;52.742;15.242;2023-01-09T06:49:07;34.45;;;12.50;;
69334;SDS011;56477;52.742;15.242;2023-01-09T06:51:34;41.55;;;16.98;;
69334;SDS011;56477;52.742;15.242;2023-01-09T06:54:00;42.23;;;16.60;;
69334;SDS011;56477;52.742;15.242;2023-01-09T06:56:26;42.80;;;17.65;;
69334;SDS011;56477;52.742;15.242;2023-01-09T06:58:52;41.00;;;15.65;;
69334;SDS011;56477;52.742;15.242;2023-01-09T07:01:18;29.77;;;11.43;;
69334;SDS011;56477;52.742;15.242;2023-01-09T07:03:44;37.20;;;15.80;;
69334;SDS011;56477;52.742;15.242;2023-01-09T07:06:11;46.05;;;18.50;;
69334;SDS011;56477;52.742;15.242;2023-01-09T07:08:36;43.90;;;16.60;;
69334;SDS011;56477;52.742;15.242;2023-01-09T07:11:03;44.22;;;16.67;;
69334;SDS011;56477;52.742;15.242;2023-01-09T07:13:29;43.43;;;16.40;;
69334;SDS011;56477;52.742;15.242;2023-01-09T07:15:55;47.42;;;19.63;;
69334;SDS011;56477;52.742;15.242;2023-01-09T07:18:22;42.78;;;16.80;;
69334;SDS011;56477;52.742;15.242;2023-01-09T07:20:48;34.60;;;13.50;;
69334;SDS011;56477;52.742;15.242;2023-01-09T07:23:14;42.83;;;16.80;;
69334;SDS011;56477;52.742;15.242;2023-01-09T07:25:41;48.30;;;18.98;;
69334;SDS011;56477;52.742;15.242;2023-01-09T07:28:07;50.50;;;17.33;;
69334;SDS011;56477;52.742;15.242;2023-01-09T07:30:33;46.53;;;19.00;;
69334;SDS011;56477;52.742;15.242;2023-01-09T07:32:59;45.50;;;17.60;;
69334;SDS011;56477;52.742;15.242;2023-01-09T07:35:25;47.13;;;17.20;;
69334;SDS011;56477;52.742;15.242;2023-01-09T07:37:51;50.03;;;17.58;;
69334;SDS011;56477;52.742;15.242;2023-01-09T07:40:17;49.38;;;19.27;;
69334;SDS011;56477;52.742;15.242;2023-01-09T07:42:43;57.77;;;20.33;;
69334;SDS011;56477;52.742;15.242;2023-01-09T07:45:10;40.35;;;15.75;;
69334;SDS011;56477;52.742;15.242;2023-01-09T07:47:35;49.58;;;18.23;;
69334;SDS011;56477;52.742;15.242;2023-01-09T07:50:04;53.85;;;20.95;;
69334;SDS011;56477;52.742;15.242;2023-01-09T07:52:30;50.13;;;18.90;;
69334;SDS011;56477;52.742;15.242;2023-01-09T07:54:56;50.40;;;18.67;;
69334;SDS011;56477;52.742;15.242;2023-01-09T07:57:22;37.40;;;14.98;;
69334;SDS011;56477;52.742;15.242;2023-01-09T07:59:48;56.70;;;19.83;;
69334;SDS011;56477;52.742;15.242;2023-01-09T08:02:14;59.93;;;20.33;;
69334;SDS011;56477;52.742;15.242;2023-01-09T08:04:40;55.85;;;20.60;;
69334;SDS011;56477;52.742;15.242;2023-01-09T08:07:06;51.90;;;19.92;;
69334;SDS011;56477;52.742;15.242;2023-01-09T08:09:32;49.42;;;18.50;;
69334;SDS011;56477;52.742;15.242;2023-01-09T08:11:58;54.13;;;19.80;;
69334;SDS011;56477;52.742;15.242;2023-01-09T08:14:24;56.83;;;20.92;;
69334;SDS011;56477;52.742;15.242;2023-01-09T08:16:50;52.17;;;16.05;;
69334;SDS011;56477;52.742;15.242;2023-01-09T08:19:16;57.40;;;20.13;;
69334;SDS011;56477;52.742;15.242;2023-01-09T08:21:42;48.17;;;17.52;;
69334;SDS011;56477;52.742;15.242;2023-01-09T08:24:08;55.40;;;21.00;;
69334;SDS011;56477;52.742;15.242;2023-01-09T08:26:34;58.30;;;21.15;;
69334;SDS011;56477;52.742;15.242;2023-01-09T08:29:00;61.03;;;21.23;;
69334;SDS011;56477;52.742;15.242;2023-01-09T08:31:26;56.20;;;19.67;;
69334;SDS011;56477;52.742;15.242;2023-01-09T08:33:52;62.33;;;21.25;;
69334;SDS011;56477;52.742;15.242;2023-01-09T08:36:18;62.40;;;20.47;;
69334;SDS011;56477;52.742;15.242;2023-01-09T08:38:44;58.70;;;19.27;;
69334;SDS011;56477;52.742;15.242;2023-01-09T08:41:10;60.28;;;20.95;;
69334;SDS011;56477;52.742;15.242;2023-01-09T08:43:54;57.20;;;20.48;;
69334;SDS011;56477;52.742;15.242;2023-01-09T08:46:39;62.23;;;21.37;;
69334;SDS011;56477;52.742;15.242;2023-01-09T08:49:25;59.20;;;21.35;;
69334;SDS011;56477;52.742;15.242;2023-01-09T08:51:51;54.20;;;21.08;;
69334;SDS011;56477;52.742;15.242;2023-01-09T08:54:17;60.33;;;20.70;;
69334;SDS011;56477;52.742;15.242;2023-01-09T08:56:43;65.20;;;21.67;;
69334;SDS011;56477;52.742;15.242;2023-01-09T08:59:09;58.08;;;19.70;;
69334;SDS011;56477;52.742;15.242;2023-01-09T09:01:35;63.20;;;22.27;;
69334;SDS011;56477;52.742;15.242;2023-01-09T09:04:01;61.08;;;21.48;;
69334;SDS011;56477;52.742;15.242;2023-01-09T09:06:30;59.95;;;20.15;;
69334;SDS011;56477;52.742;15.242;2023-01-09T09:08:56;58.57;;;20.90;;
69334;SDS011;56477;52.742;15.242;2023-01-09T09:11:30;57.75;;;19.70;;
69334;SDS011;56477;52.742;15.242;2023-01-09T09:14:00;62.22;;;21.08;;
69334;SDS011;56477;52.742;15.242;2023-01-09T09:16:47;55.47;;;20.67;;
69334;SDS011;56477;52.742;15.242;2023-01-09T09:19:14;57.58;;;19.27;;
69334;SDS011;56477;52.742;15.242;2023-01-09T09:21:39;54.13;;;20.43;;
69334;SDS011;56477;52.742;15.242;2023-01-09T09:24:06;58.40;;;19.95;;
69334;SDS011;56477;52.742;15.242;2023-01-09T09:26:32;52.13;;;17.80;;
69334;SDS011;56477;52.742;15.242;2023-01-09T09:28:58;50.47;;;19.00;;
69334;SDS011;56477;52.742;15.242;2023-01-09T09:31:24;48.90;;;18.50;;
69334;SDS011;56477;52.742;15.242;2023-01-09T09:33:50;52.20;;;20.00;;
69334;SDS011;56477;52.742;15.242;2023-01-09T09:36:16;52.53;;;20.55;;
69334;SDS011;56477;52.742;15.242;2023-01-09T09:38:42;55.90;;;17.97;;
69334;SDS011;56477;52.742;15.242;2023-01-09T09:44:22;61.45;;;20.05;;
69334;SDS011;56477;52.742;15.242;2023-01-09T09:52:28;50.40;;;19.60;;
69334;SDS011;56477;52.742;15.242;2023-01-09T09:55:05;53.13;;;18.55;;
69334;SDS011;56477;52.742;15.242;2023-01-09T09:57:40;57.70;;;20.00;;
69334;SDS011;56477;52.742;15.242;2023-01-09T10:00:09;55.22;;;18.27;;
69334;SDS011;56477;52.742;15.242;2023-01-09T10:02:52;56.30;;;19.67;;
69334;SDS011;56477;52.742;15.242;2023-01-09T10:05:25;54.03;;;19.58;;
69334;SDS011;56477;52.742;15.242;2023-01-09T10:07:53;58.13;;;21.10;;
69334;SDS011;56477;52.742;15.242;2023-01-09T10:10:30;65.50;;;21.63;;
69334;SDS011;56477;52.742;15.242;2023-01-09T10:12:59;56.78;;;19.27;;
69334;SDS011;56477;52.742;15.242;2023-01-09T10:15:51;50.53;;;17.73;;
69334;SDS011;56477;52.742;15.242;2023-01-09T10:21:14;62.00;;;20.15;;
69334;SDS011;56477;52.742;15.242;2023-01-09T10:26:41;63.92;;;21.00;;
69334;SDS011;56477;52.742;15.242;2023-01-09T10:29:17;54.77;;;20.47;;
69334;SDS011;56477;52.742;15.242;2023-01-09T10:35:26;58.55;;;20.70;;
69334;SDS011;56477;52.742;15.242;2023-01-09T10:38:03;63.90;;;20.88;;
69334;SDS011;56477;52.742;15.242;2023-01-09T10:40:34;58.85;;;21.13;;
69334;SDS011;56477;52.742;15.242;2023-01-09T10:43:14;56.27;;;18.97;;
69334;SDS011;56477;52.742;15.242;2023-01-09T10:45:55;55.92;;;21.00;;
69334;SDS011;56477;52.742;15.242;2023-01-09T10:50:54;60.15;;;21.50;;
69334;SDS011;56477;52.742;15.242;2023-01-09T10:53:44;62.03;;;21.42;;
69334;SDS011;56477;52.742;15.242;2023-01-09T10:58:57;63.22;;;21.58;;
69334;SDS011;56477;52.742;15.242;2023-01-09T11:01:26;60.72;;;21.77;;
69334;SDS011;56477;52.742;15.242;2023-01-09T11:03:57;64.53;;;21.77;;
69334;SDS011;56477;52.742;15.242;2023-01-09T11:06:27;52.85;;;18.48;;
69334;SDS011;56477;52.742;15.242;2023-01-09T11:09:00;63.53;;;21.47;;
69334;SDS011;56477;52.742;15.242;2023-01-09T11:11:44;61.55;;;20.55;;
69334;SDS011;56477;52.742;15.242;2023-01-09T11:19:22;61.42;;;21.58;;
69334;SDS011;56477;52.742;15.242;2023-01-09T11:21:49;58.80;;;20.87;;
69334;SDS011;56477;52.742;15.242;2023-01-09T11:24:30;43.78;;;15.27;;
69334;SDS011;56477;52.742;15.242;2023-01-09T11:29:40;58.83;;;20.20;;
69334;SDS011;56477;52.742;15.242;2023-01-09T11:32:19;63.10;;;20.63;;
69334;SDS011;56477;52.742;15.242;2023-01-09T11:34:49;58.40;;;21.63;;
69334;SDS011;56477;52.742;15.242;2023-01-09T11:37:21;54.00;;;19.48;;
69334;SDS011;56477;52.742;15.242;2023-01-09T11:39:54;63.75;;;21.45;;
69334;SDS011;56477;52.742;15.242;2023-01-09T11:42:22;62.95;;;20.23;;
69334;SDS011;56477;52.742;15.242;2023-01-09T11:45:19;58.50;;;19.20;;
69334;SDS011;56477;52.742;15.242;2023-01-09T11:50:41;57.25;;;19.73;;
69334;SDS011;56477;52.742;15.242;2023-01-09T11:53:19;67.68;;;22.85;;
69334;SDS011;56477;52.742;15.242;2023-01-09T11:55:46;56.95;;;20.45;;
69334;SDS011;56477;52.742;15.242;2023-01-09T11:58:18;54.53;;;18.67;;
69334;SDS011;56477;52.742;15.242;2023-01-09T12:08:46;57.63;;;20.92;;
69334;SDS011;56477;52.742;15.242;2023-01-09T12:11:28;62.33;;;19.63;;
69334;SDS011;56477;52.742;15.242;2023-01-09T12:16:51;60.25;;;20.75;;
69334;SDS011;56477;52.742;15.242;2023-01-09T12:36:03;49.55;;;17.52;;
69334;SDS011;56477;52.742;15.242;2023-01-09T12:38:51;61.53;;;21.60;;
69334;SDS011;56477;52.742;15.242;2023-01-09T12:44:53;65.47;;;22.40;;
69334;SDS011;56477;52.742;15.242;2023-01-09T12:50:00;54.83;;;19.25;;
69334;SDS011;56477;52.742;15.242;2023-01-09T12:52:46;59.27;;;20.30;;
69334;SDS011;56477;52.742;15.242;2023-01-09T12:55:21;66.45;;;23.30;;
69334;SDS011;56477;52.742;15.242;2023-01-09T12:57:50;54.65;;;19.52;;
69334;SDS011;56477;52.742;15.242;2023-01-09T13:00:25;64.95;;;22.30;;
69334;SDS011;56477;52.742;15.242;2023-01-09T13:03:31;68.78;;;24.40;;
69334;SDS011;56477;52.742;15.242;2023-01-09T13:05:59;74.37;;;24.40;;
69334;SDS011;56477;52.742;15.242;2023-01-09T13:11:15;58.92;;;23.17;;
69334;SDS011;56477;52.742;15.242;2023-01-09T13:14:02;53.30;;;17.55;;
69334;SDS011;56477;52.742;15.242;2023-01-09T13:16:43;60.33;;;21.67;;
69334;SDS011;56477;52.742;15.242;2023-01-09T13:21:41;67.10;;;24.73;;
69334;SDS011;56477;52.742;15.242;2023-01-09T13:27:11;63.42;;;24.00;;
69334;SDS011;56477;52.742;15.242;2023-01-09T13:29:46;68.32;;;23.27;;
69334;SDS011;56477;52.742;15.242;2023-01-09T13:32:32;20.93;;;9.00;;
69334;SDS011;56477;52.742;15.242;2023-01-09T13:35:13;58.08;;;19.60;;
69334;SDS011;56477;52.742;15.242;2023-01-09T13:37:40;77.32;;;27.45;;
69334;SDS011;56477;52.742;15.242;2023-01-09T13:42:57;39.40;;;16.70;;
69334;SDS011;56477;52.742;15.242;2023-01-09T13:45:27;29.57;;;11.77;;
69334;SDS011;56477;52.742;15.242;2023-01-09T13:50:42;38.92;;;14.82;;
69334;SDS011;56477;52.742;15.242;2023-01-09T13:58:25;48.10;;;18.37;;
69334;SDS011;56477;52.742;15.242;2023-01-09T14:00:57;47.97;;;18.73;;
69334;SDS011;56477;52.742;15.242;2023-01-09T14:03:26;56.00;;;23.40;;
69334;SDS011;56477;52.742;15.242;2023-01-09T14:08:24;56.72;;;20.05;;
69334;SDS011;56477;52.742;15.242;2023-01-09T14:10:52;56.77;;;21.87;;
69334;SDS011;56477;52.742;15.242;2023-01-09T14:13:23;43.13;;;15.75;;
69334;SDS011;56477;52.742;15.242;2023-01-09T14:16:00;29.38;;;12.27;;
69334;SDS011;56477;52.742;15.242;2023-01-09T14:18:44;53.60;;;21.02;;
69334;SDS011;56477;52.742;15.242;2023-01-09T14:21:16;38.83;;;15.75;;
69334;SDS011;56477;52.742;15.242;2023-01-09T14:23:57;51.83;;;20.13;;
69334;SDS011;56477;52.742;15.242;2023-01-09T14:26:45;57.10;;;20.23;;
69334;SDS011;56477;52.742;15.242;2023-01-09T14:29:35;56.25;;;21.45;;
69334;SDS011;56477;52.742;15.242;2023-01-09T14:34:57;47.97;;;20.17;;
69334;SDS011;56477;52.742;15.242;2023-01-09T14:37:26;52.63;;;20.30;;
69334;SDS011;56477;52.742;15.242;2023-01-09T14:39:55;58.05;;;23.38;;
69334;SDS011;56477;52.742;15.242;2023-01-09T14:42:23;47.35;;;18.58;;
69334;SDS011;56477;52.742;15.242;2023-01-09T14:44:55;60.53;;;22.58;;
69334;SDS011;56477;52.742;15.242;2023-01-09T14:50:03;29.77;;;11.90;;
69334;SDS011;56477;52.742;15.242;2023-01-09T14:52:51;42.92;;;17.02;;
69334;SDS011;56477;52.742;15.242;2023-01-09T14:58:08;30.80;;;12.48;;
69334;SDS011;56477;52.742;15.242;2023-01-09T15:00:36;39.65;;;15.38;;
69334;SDS011;56477;52.742;15.242;2023-01-09T15:03:12;35.57;;;15.73;;
69334;SDS011;56477;52.742;15.242;2023-01-09T15:05:38;27.00;;;12.02;;
69334;SDS011;56477;52.742;15.242;2023-01-09T15:08:04;28.02;;;11.82;;
69334;SDS011;56477;52.742;15.242;2023-01-09T15:10:31;21.90;;;7.82;;
69334;SDS011;56477;52.742;15.242;2023-01-09T15:13:02;36.00;;;12.40;;
69334;SDS011;56477;52.742;15.242;2023-01-09T15:15:31;37.27;;;15.53;;
69334;SDS011;56477;52.742;15.242;2023-01-09T15:17:58;31.00;;;11.48;;
69334;SDS011;56477;52.742;15.242;2023-01-09T15:20:27;47.88;;;18.42;;
69334;SDS011;56477;52.742;15.242;2023-01-09T15:22:55;34.47;;;14.52;;
69334;SDS011;56477;52.742;15.242;2023-01-09T15:25:26;25.83;;;11.57;;
69334;SDS011;56477;52.742;15.242;2023-01-09T15:27:55;48.80;;;18.90;;
69334;SDS011;56477;52.742;15.242;2023-01-09T15:30:28;35.40;;;14.32;;
69334;SDS011;56477;52.742;15.242;2023-01-09T15:33:08;32.45;;;11.57;;
69334;SDS011;56477;52.742;15.242;2023-01-09T15:35:40;34.95;;;13.35;;
69334;SDS011;56477;52.742;15.242;2023-01-09T15:38:12;31.83;;;13.10;;
69334;SDS011;56477;52.742;15.242;2023-01-09T15:40:40;37.38;;;15.65;;
69334;SDS011;56477;52.742;15.242;2023-01-09T15:43:06;19.52;;;8.35;;
69334;SDS011;56477;52.742;15.242;2023-01-09T15:45:39;25.33;;;11.15;;
69334;SDS011;56477;52.742;15.242;2023-01-09T15:50:46;21.80;;;8.70;;
69334;SDS011;56477;52.742;15.242;2023-01-09T15:53:15;29.92;;;13.23;;
69334;SDS011;56477;52.742;15.242;2023-01-09T15:55:43;26.00;;;10.35;;
69334;SDS011;56477;52.742;15.242;2023-01-09T15:58:24;22.30;;;10.07;;
69334;SDS011;56477;52.742;15.242;2023-01-09T16:00:57;19.83;;;7.57;;
69334;SDS011;56477;52.742;15.242;2023-01-09T16:03:26;27.98;;;10.60;;
69334;SDS011;56477;52.742;15.242;2023-01-09T16:05:54;37.50;;;15.65;;
69334;SDS011;56477;52.742;15.242;2023-01-09T16:08:36;27.52;;;9.82;;
69334;SDS011;56477;52.742;15.242;2023-01-09T16:11:08;23.73;;;8.95;;
69334;SDS011;56477;52.742;15.242;2023-01-09T16:13:43;16.20;;;6.07;;
69334;SDS011;56477;52.742;15.242;2023-01-09T16:16:10;16.38;;;6.90;;
69334;SDS011;56477;52.742;15.242;2023-01-09T16:18:38;10.38;;;3.85;;
69334;SDS011;56477;52.742;15.242;2023-01-09T16:23:50;7.57;;;3.35;;
69334;SDS011;56477;52.742;15.242;2023-01-09T16:26:19;10.37;;;4.23;;
69334;SDS011;56477;52.742;15.242;2023-01-09T16:28:48;9.10;;;4.45;;
69334;SDS011;56477;52.742;15.242;2023-01-09T16:33:54;7.85;;;3.30;;
69334;SDS011;56477;52.742;15.242;2023-01-09T16:36:22;9.98;;;3.65;;
69334;SDS011;56477;52.742;15.242;2023-01-09T16:38:49;15.27;;;5.27;;
69334;SDS011;56477;52.742;15.242;2023-01-09T16:41:16;11.98;;;4.20;;
69334;SDS011;56477;52.742;15.242;2023-01-09T16:44:02;10.50;;;3.40;;
69334;SDS011;56477;52.742;15.242;2023-01-09T16:46:38;7.47;;;2.63;;
69334;SDS011;56477;52.742;15.242;2023-01-09T16:49:17;7.18;;;2.95;;
69334;SDS011;56477;52.742;15.242;2023-01-09T16:51:46;11.67;;;3.37;;